createdAt,value
2023-04-08T00:01:02.050Z,38.74
2023-04-08T00:03:31.441Z,38.58
2023-04-08T00:06:01.123Z,38.85
2023-04-08T00:08:31.320Z,39.25
2023-04-08T00:10:59.920Z,39.10
2023-04-08T00:13:31.469Z,39.20
2023-04-08T00:16:00.131Z,39.35
2023-04-08T00:18:29.482Z,39.23
2023-04-08T00:20:57.805Z,39.35
2023-04-08T00:23:26.421Z,39.33
2023-04-08T00:25:54.836Z,39.57
2023-04-08T00:28:30.152Z,39.46
2023-04-08T00:30:58.549Z,39.51
2023-04-08T00:33:27.677Z,39.44
2023-04-08T00:35:56.083Z,39.50
2023-04-08T00:38:24.464Z,39.56
2023-04-08T00:40:53.784Z,39.56
2023-04-08T00:43:23.271Z,39.64
2023-04-08T00:45:52.044Z,39.58
2023-04-08T00:48:20.407Z,39.83
2023-04-08T00:50:48.775Z,39.85
2023-04-08T00:53:36.945Z,39.91
2023-04-08T00:56:05.564Z,39.74
2023-04-08T00:58:34.562Z,39.78
2023-04-08T01:01:07.754Z,40.00
2023-04-08T01:04:01.957Z,40.06
2023-04-08T01:07:18.178Z,40.45
2023-04-08T01:09:52.877Z,40.04
2023-04-08T01:12:29.212Z,40.40
2023-04-08T01:15:01.766Z,40.43
2023-04-08T01:17:31.290Z,40.45
2023-04-08T01:20:01.958Z,40.33
2023-04-08T01:22:55.125Z,40.63
2023-04-08T01:25:26.642Z,40.44
2023-04-08T01:27:57.818Z,40.40
2023-04-08T01:30:27.478Z,40.43
2023-04-08T01:35:51.210Z,44.50
2023-04-08T01:38:21.841Z,40.93
2023-04-08T01:40:49.010Z,40.87
2023-04-08T01:43:16.931Z,40.93
2023-04-08T01:45:44.600Z,41.12
2023-04-08T01:48:13.009Z,41.31
2023-04-08T01:50:44.457Z,41.54
2023-04-08T01:53:13.376Z,41.83
2023-04-08T01:55:41.659Z,42.49
2023-04-08T01:58:08.930Z,42.67
2023-04-08T02:00:37.140Z,43.00
2023-04-08T02:03:05.444Z,43.30
2023-04-08T02:05:34.080Z,44.36
2023-04-08T02:08:00.975Z,43.76
2023-04-08T02:10:33.247Z,44.28
2023-04-08T02:13:01.094Z,44.37
2023-04-08T02:15:33.898Z,44.89
2023-04-08T02:18:16.638Z,45.36
2023-04-08T02:20:52.248Z,45.40
2023-04-08T02:23:32.795Z,45.38
2023-04-08T02:25:59.730Z,44.92
2023-04-08T02:28:27.327Z,44.97
2023-04-08T02:30:55.959Z,44.86
2023-04-08T02:33:23.948Z,44.52
2023-04-08T02:35:55.493Z,44.80
2023-04-08T02:38:29.370Z,45.18
2023-04-08T02:40:56.803Z,45.37
2023-04-08T02:43:31.200Z,45.00
2023-04-08T02:46:03.477Z,45.40
2023-04-08T02:48:31.346Z,45.02
2023-04-08T02:50:58.241Z,45.03
2023-04-08T02:53:25.952Z,45.50
2023-04-08T02:55:52.950Z,45.52
2023-04-08T02:58:20.056Z,45.54
2023-04-08T03:00:48.050Z,45.62
2023-04-08T03:03:16.670Z,45.40
2023-04-08T03:05:43.584Z,45.55
2023-04-08T03:08:10.592Z,45.73
2023-04-08T03:10:37.834Z,45.56
2023-04-08T03:13:05.241Z,45.52
2023-04-08T03:15:32.112Z,45.78
2023-04-08T03:17:59.332Z,45.27
2023-04-08T03:20:26.600Z,45.78
2023-04-08T03:22:54.725Z,45.63
2023-04-08T03:25:21.645Z,46.21
2023-04-08T03:27:48.657Z,46.35
2023-04-08T03:30:15.592Z,46.66
2023-04-08T03:32:43.155Z,46.89
2023-04-08T03:35:10.708Z,46.18
2023-04-08T03:37:37.814Z,46.94
2023-04-08T03:40:05.802Z,47.08
2023-04-08T03:42:33.268Z,47.21
2023-04-08T03:45:00.117Z,48.69
2023-04-08T03:47:27.041Z,47.89
2023-04-08T03:49:55.093Z,47.75
2023-04-08T03:52:22.444Z,48.06
2023-04-08T03:54:49.390Z,47.95
2023-04-08T03:57:16.366Z,48.09
2023-04-08T03:59:43.283Z,48.33
2023-04-08T04:02:10.535Z,48.13
2023-04-08T04:04:38.429Z,48.50
2023-04-08T04:07:05.607Z,49.36
2023-04-08T04:09:32.378Z,48.22
2023-04-08T04:11:59.272Z,48.52
2023-04-08T04:14:27.154Z,48.15
2023-04-08T04:16:54.294Z,48.39
2023-04-08T04:19:21.292Z,48.64
2023-04-08T04:21:50.977Z,48.68
2023-04-08T04:24:17.749Z,48.69
2023-04-08T04:26:44.978Z,48.49
2023-04-08T04:29:11.874Z,49.10
2023-04-08T04:31:40.331Z,49.20
2023-04-08T04:34:07.249Z,49.65
2023-04-08T04:36:35.426Z,50.33
2023-04-08T04:39:02.450Z,49.97
2023-04-08T04:41:29.909Z,50.69
2023-04-08T04:43:56.779Z,49.92
2023-04-08T04:46:23.813Z,50.35
2023-04-08T04:48:51.144Z,50.65
2023-04-08T04:51:18.442Z,51.17
2023-04-08T04:53:46.281Z,50.84
2023-04-08T04:56:13.420Z,50.97
2023-04-08T04:58:41.659Z,51.38
2023-04-08T05:01:08.998Z,51.63
2023-04-08T05:03:36.626Z,52.00
2023-04-08T05:06:05.075Z,51.55
2023-04-08T05:08:32.529Z,51.21
2023-04-08T05:11:01.767Z,51.91
2023-04-08T05:13:38.183Z,52.67
2023-04-08T05:16:06.565Z,52.87
2023-04-08T05:18:33.824Z,53.56
2023-04-08T05:21:04.909Z,53.04
2023-04-08T05:23:34.604Z,53.06
2023-04-08T05:26:02.009Z,53.53
2023-04-08T05:28:28.925Z,53.69
2023-04-08T05:30:56.214Z,52.76
2023-04-08T05:33:23.415Z,52.68
2023-04-08T05:35:52.673Z,53.31
2023-04-08T05:38:21.812Z,54.04
2023-04-08T05:40:49.885Z,53.84
2023-04-08T05:43:17.500Z,53.53
2023-04-08T05:45:44.426Z,55.40
2023-04-08T05:48:11.713Z,53.41
2023-04-08T05:50:38.804Z,54.01
2023-04-08T05:53:05.916Z,53.98
2023-04-08T05:55:33.259Z,54.17
2023-04-08T05:58:00.974Z,53.45
2023-04-08T06:00:28.586Z,53.20
2023-04-08T06:03:17.458Z,54.62
2023-04-08T06:05:46.850Z,54.50
2023-04-08T06:08:14.333Z,54.06
2023-04-08T06:10:49.861Z,53.02
2023-04-08T06:13:19.746Z,54.19
2023-04-08T06:15:48.386Z,53.88
2023-04-08T06:18:20.629Z,54.21
2023-04-08T06:20:47.621Z,53.87
2023-04-08T06:23:14.933Z,53.11
2023-04-08T06:25:42.523Z,53.74
2023-04-08T06:28:09.747Z,53.65
2023-04-08T06:30:38.081Z,53.28
2023-04-08T06:33:07.050Z,53.08
2023-04-08T06:35:34.086Z,52.63
2023-04-08T06:38:01.184Z,53.11
2023-04-08T06:40:28.237Z,52.95
2023-04-08T06:42:55.967Z,53.17
2023-04-08T06:45:33.518Z,54.00
2023-04-08T06:48:00.756Z,52.72
2023-04-08T06:50:27.868Z,53.06
2023-04-08T06:52:55.013Z,52.57
2023-04-08T06:55:21.989Z,52.56
2023-04-08T06:57:53.472Z,52.35
2023-04-08T07:00:20.780Z,52.21
2023-04-08T07:03:07.938Z,52.76
2023-04-08T07:05:36.430Z,52.34
2023-04-08T07:08:03.224Z,52.50
2023-04-08T07:10:31.649Z,52.31
2023-04-08T07:12:59.321Z,52.09
2023-04-08T07:15:26.808Z,52.27
2023-04-08T07:17:59.357Z,52.42
2023-04-08T07:20:26.424Z,52.02
2023-04-08T07:22:57.955Z,52.41
2023-04-08T07:25:25.112Z,52.29
2023-04-08T07:27:52.606Z,52.22
2023-04-08T07:30:20.150Z,51.92
2023-04-08T07:32:47.237Z,51.21
2023-04-08T07:35:23.790Z,51.56
2023-04-08T07:37:52.478Z,51.99
2023-04-08T07:40:19.553Z,51.95
2023-04-08T07:42:47.512Z,50.24
2023-04-08T07:45:14.919Z,50.88
2023-04-08T07:47:42.358Z,50.01
2023-04-08T07:50:10.139Z,49.30
2023-04-08T07:52:37.514Z,50.25
2023-04-08T07:55:05.372Z,51.72
2023-04-08T07:57:32.226Z,50.76
2023-04-08T07:59:59.172Z,50.55
2023-04-08T08:02:26.265Z,49.42
2023-04-08T08:04:53.695Z,49.23
2023-04-08T08:07:20.867Z,49.56
2023-04-08T08:09:47.914Z,50.47
2023-04-08T08:12:14.987Z,50.59
2023-04-08T08:14:44.170Z,50.30
2023-04-08T08:17:12.316Z,48.79
2023-04-08T08:19:39.572Z,47.60
2023-04-08T08:22:11.559Z,46.83
2023-04-08T08:24:38.910Z,46.82
2023-04-08T08:27:06.337Z,46.35
2023-04-08T08:29:33.500Z,46.11
2023-04-08T08:32:00.837Z,46.02
2023-04-08T08:34:27.842Z,46.03
2023-04-08T08:36:55.444Z,44.53
2023-04-08T08:39:22.556Z,45.97
2023-04-08T08:41:51.182Z,46.06
2023-04-08T08:44:18.232Z,45.53
2023-04-08T08:46:45.370Z,45.48
2023-04-08T08:49:12.640Z,45.70
2023-04-08T08:51:45.075Z,45.39
2023-04-08T08:54:13.062Z,44.86
2023-04-08T08:56:40.172Z,45.60
2023-04-08T08:59:07.982Z,45.69
2023-04-08T09:01:38.364Z,44.71
2023-04-08T09:04:10.279Z,45.47
2023-04-08T09:06:39.183Z,45.22
2023-04-08T09:09:09.697Z,44.05
2023-04-08T09:11:43.957Z,43.38
2023-04-08T09:14:21.670Z,43.14
2023-04-08T09:16:49.289Z,43.12
2023-04-08T09:19:19.358Z,43.13
2023-04-08T09:22:03.649Z,43.16
2023-04-08T09:24:31.387Z,42.98
2023-04-08T09:27:06.833Z,42.11
2023-04-08T09:29:36.446Z,42.55
2023-04-08T09:32:05.660Z,42.61
2023-04-08T09:34:33.784Z,41.85
2023-04-08T09:37:01.459Z,42.04
2023-04-08T09:39:30.388Z,42.63
2023-04-08T09:41:58.576Z,42.20
2023-04-08T09:44:26.127Z,42.86
2023-04-08T09:46:59.962Z,42.61
2023-04-08T09:49:27.708Z,42.44
2023-04-08T09:52:14.082Z,42.25
2023-04-08T09:54:51.754Z,41.20
2023-04-08T09:57:41.491Z,40.58
2023-04-08T10:00:14.992Z,40.62
2023-04-08T10:02:59.283Z,41.97
2023-04-08T10:05:26.793Z,40.84
2023-04-08T10:07:55.796Z,40.52
2023-04-08T10:10:23.466Z,40.92
2023-04-08T10:12:51.852Z,40.42
2023-04-08T10:15:30.110Z,40.43
2023-04-08T10:18:06.493Z,39.88
2023-04-08T10:20:34.528Z,39.76
2023-04-08T10:23:03.105Z,40.31
2023-04-08T10:25:37.504Z,40.10
2023-04-08T10:28:10.315Z,38.81
2023-04-08T10:30:37.877Z,39.66
2023-04-08T10:33:34.326Z,38.96
2023-04-08T10:36:14.726Z,38.46
2023-04-08T10:38:42.109Z,39.09
2023-04-08T10:41:10.517Z,38.79
2023-04-08T10:43:37.770Z,39.00
2023-04-08T10:46:10.262Z,39.20
2023-04-08T10:48:37.553Z,38.87
2023-04-08T10:51:06.607Z,38.04
2023-04-08T10:53:37.334Z,37.43
2023-04-08T10:56:17.314Z,38.65
2023-04-08T10:58:49.349Z,38.59
2023-04-08T11:01:19.385Z,38.62
2023-04-08T11:03:47.279Z,38.51
2023-04-08T11:06:15.248Z,38.71
2023-04-08T11:08:44.092Z,38.26
2023-04-08T11:11:11.747Z,38.30
2023-04-08T11:13:52.942Z,37.86
2023-04-08T11:16:22.015Z,37.49
2023-04-08T11:19:12.625Z,37.76
2023-04-08T11:21:46.412Z,37.74
2023-04-08T11:24:16.205Z,37.61
2023-04-08T11:26:47.605Z,37.62
2023-04-08T11:29:15.392Z,37.14
2023-04-08T11:31:42.891Z,37.40
2023-04-08T11:34:11.828Z,37.18
2023-04-08T11:36:42.019Z,36.95
2023-04-08T11:39:09.418Z,36.93
2023-04-08T11:41:41.229Z,37.04
2023-04-08T11:44:08.149Z,37.01
2023-04-08T11:46:37.280Z,36.94
2023-04-08T11:49:06.063Z,36.98
2023-04-08T11:51:54.770Z,36.64
2023-04-08T11:54:32.316Z,35.66
2023-04-08T11:56:59.873Z,36.40
2023-04-08T11:59:29.761Z,35.27
2023-04-08T12:01:57.222Z,35.48
2023-04-08T12:04:24.421Z,34.67
2023-04-08T12:06:53.172Z,34.14
2023-04-08T12:09:20.163Z,34.01
2023-04-08T12:11:50.209Z,33.90
2023-04-08T12:14:23.812Z,34.38
2023-04-08T12:16:52.142Z,34.29
2023-04-08T12:19:23.698Z,34.17
2023-04-08T12:21:55.382Z,34.07
2023-04-08T12:24:23.172Z,34.24
2023-04-08T12:26:59.561Z,34.29
2023-04-08T12:29:30.635Z,34.20
2023-04-08T12:31:58.240Z,34.16
2023-04-08T12:34:28.216Z,34.46
2023-04-08T12:36:58.296Z,34.42
2023-04-08T12:39:26.395Z,34.60
2023-04-08T12:41:53.907Z,34.25
2023-04-08T12:44:21.105Z,34.38
2023-04-08T12:46:48.839Z,34.53
2023-04-08T12:49:15.845Z,34.73
2023-04-08T12:51:46.738Z,34.82
2023-04-08T12:54:14.350Z,34.96
2023-04-08T12:56:42.778Z,34.67
2023-04-08T12:59:11.214Z,34.71
2023-04-08T13:01:38.724Z,34.55
2023-04-08T13:04:06.151Z,34.83
2023-04-08T13:06:33.540Z,34.68
2023-04-08T13:09:00.821Z,34.54
2023-04-08T13:11:29.548Z,34.16
2023-04-08T13:13:56.739Z,33.79
2023-04-08T13:16:24.187Z,33.00
2023-04-08T13:18:52.426Z,32.48
2023-04-08T13:21:19.759Z,33.00
2023-04-08T13:23:46.654Z,33.63
2023-04-08T13:26:13.836Z,33.41
2023-04-08T13:28:55.801Z,32.90
2023-04-08T13:31:26.223Z,32.30
2023-04-08T13:33:55.231Z,32.63
2023-04-08T13:36:24.513Z,32.58
2023-04-08T13:38:51.876Z,32.15
2023-04-08T13:41:20.576Z,32.09
2023-04-08T13:43:48.162Z,32.05
2023-04-08T13:46:15.256Z,31.25
2023-04-08T13:48:44.164Z,32.09
2023-04-08T13:51:58.055Z,34.31
2023-04-08T13:54:32.962Z,32.45
2023-04-08T13:57:02.773Z,32.65
2023-04-08T13:59:31.668Z,33.28
2023-04-08T14:02:02.386Z,33.93
2023-04-08T14:04:31.809Z,34.45
2023-04-08T14:07:01.138Z,34.73
2023-04-08T14:09:29.681Z,35.02
2023-04-08T14:11:59.461Z,35.18
2023-04-08T14:14:28.043Z,35.30
2023-04-08T14:17:00.952Z,35.21
2023-04-08T14:19:29.547Z,35.39
2023-04-08T14:22:03.780Z,35.51
2023-04-08T14:24:32.734Z,35.45
2023-04-08T14:27:01.142Z,35.50
2023-04-08T14:29:30.635Z,35.33
2023-04-08T14:31:59.039Z,35.36
2023-04-08T14:34:27.537Z,35.60
2023-04-08T14:36:56.247Z,36.02
2023-04-08T14:39:25.519Z,36.51
2023-04-08T14:41:57.587Z,36.61
2023-04-08T14:44:26.058Z,36.84
2023-04-08T14:46:54.417Z,36.81
2023-04-08T14:49:22.932Z,36.95
2023-04-08T14:51:53.208Z,37.26
2023-04-08T14:54:21.858Z,37.39
2023-04-08T14:56:50.551Z,36.80
2023-04-08T14:59:19.144Z,37.00
2023-04-08T15:01:48.023Z,37.06
2023-04-08T15:04:16.629Z,37.32
2023-04-08T15:06:46.042Z,37.53
2023-04-08T15:09:14.387Z,37.32
2023-04-08T15:11:42.778Z,37.41
2023-04-08T15:14:15.768Z,37.95
2023-04-08T15:16:44.197Z,38.31
2023-04-08T15:19:12.659Z,38.38
2023-04-08T15:21:42.169Z,37.93
2023-04-08T15:24:10.601Z,37.88
2023-04-08T15:26:38.904Z,37.80
2023-04-08T15:29:07.381Z,37.74
2023-04-08T15:31:36.171Z,37.76
2023-04-08T15:34:04.871Z,37.92
2023-04-08T15:36:36.114Z,37.91
2023-04-08T15:39:04.465Z,38.13
2023-04-08T15:41:32.923Z,38.42
2023-04-08T15:44:02.050Z,38.54
2023-04-08T15:46:30.701Z,38.96
2023-04-08T15:49:00.224Z,38.86
2023-04-08T15:51:29.857Z,38.97
2023-04-08T15:53:59.058Z,39.04
2023-04-08T15:56:29.771Z,39.14
2023-04-08T15:59:01.469Z,39.22
2023-04-08T16:01:30.136Z,39.38
2023-04-08T16:04:01.282Z,39.29
2023-04-08T16:06:30.064Z,39.39
2023-04-08T16:08:58.347Z,39.32
2023-04-08T16:11:27.866Z,39.38
2023-04-08T16:13:56.158Z,39.57
2023-04-08T16:16:24.974Z,39.39
2023-04-08T16:18:55.838Z,39.55
2023-04-08T16:21:24.396Z,39.72
2023-04-08T16:23:53.309Z,39.93
2023-04-08T16:26:22.580Z,40.14
2023-04-08T16:28:52.049Z,39.70
2023-04-08T16:31:20.897Z,39.64
2023-04-08T16:33:49.859Z,39.58
2023-04-08T16:36:20.386Z,39.45
2023-04-08T16:38:48.761Z,39.29
2023-04-08T16:41:17.140Z,39.28
2023-04-08T16:43:45.385Z,39.45
2023-04-08T16:46:16.266Z,39.08
2023-04-08T16:48:45.096Z,39.39
2023-04-08T16:51:13.681Z,39.71
2023-04-08T16:53:42.738Z,39.86
2023-04-08T16:56:16.623Z,40.07
2023-04-08T16:58:46.099Z,40.46
2023-04-08T17:01:18.788Z,40.44
2023-04-08T17:03:48.815Z,40.25
2023-04-08T17:06:17.976Z,40.22
2023-04-08T17:08:49.369Z,40.24
2023-04-08T17:11:18.582Z,40.27
2023-04-08T17:13:47.143Z,40.59
2023-04-08T17:16:17.567Z,40.62
2023-04-08T17:18:46.983Z,40.57
2023-04-08T17:21:15.821Z,40.62
2023-04-08T17:23:52.534Z,40.62
2023-04-08T17:26:26.523Z,40.47
2023-04-08T17:28:55.017Z,40.44
2023-04-08T17:31:24.024Z,40.18
2023-04-08T17:33:53.135Z,40.49
2023-04-08T17:36:21.452Z,40.57
2023-04-08T17:38:51.532Z,40.71
2023-04-08T17:41:38.371Z,40.80
2023-04-08T17:44:11.950Z,41.35
2023-04-08T17:46:41.659Z,41.12
2023-04-08T17:49:14.432Z,40.91
2023-04-08T17:51:43.237Z,41.43
2023-04-08T17:54:11.875Z,41.12
2023-04-08T17:56:41.824Z,41.47
2023-04-08T17:59:11.367Z,41.72
2023-04-08T18:01:41.470Z,41.58
2023-04-08T18:04:12.886Z,40.80
2023-04-08T18:06:42.114Z,41.25
2023-04-08T18:09:13.138Z,41.35
2023-04-08T18:11:42.072Z,41.97
2023-04-08T18:14:10.531Z,42.24
2023-04-08T18:16:44.837Z,42.15
2023-04-08T18:19:16.083Z,42.30
2023-04-08T18:21:44.717Z,42.32
2023-04-08T18:24:13.840Z,42.57
2023-04-08T18:26:43.871Z,42.41
2023-04-08T18:29:12.632Z,43.13
2023-04-08T18:31:41.009Z,43.25
2023-04-08T18:34:09.363Z,43.38
2023-04-08T18:36:38.335Z,42.98
2023-04-08T18:39:06.866Z,43.55
2023-04-08T18:41:37.506Z,43.54
2023-04-08T18:44:06.419Z,43.42
2023-04-08T18:46:35.756Z,43.79
2023-04-08T18:49:04.719Z,43.56
2023-04-08T18:51:33.697Z,43.58
2023-04-08T18:54:02.150Z,43.67
2023-04-08T18:56:30.743Z,43.59
2023-04-08T18:59:00.162Z,43.63
2023-04-08T19:01:31.387Z,43.57
2023-04-08T19:04:00.148Z,43.74
2023-04-08T19:06:28.767Z,43.61
2023-04-08T19:08:57.035Z,43.68
2023-04-08T19:11:29.014Z,43.74
2023-04-08T19:13:57.899Z,43.90
2023-04-08T19:16:33.865Z,43.93
2023-04-08T19:19:03.754Z,43.98
2023-04-08T19:21:32.949Z,43.81
2023-04-08T19:24:01.334Z,43.72
2023-04-08T19:26:29.948Z,43.65
2023-04-08T19:28:58.340Z,43.67
2023-04-08T19:31:27.537Z,43.93
2023-04-08T19:33:56.049Z,43.79
2023-04-08T19:36:24.535Z,43.83
2023-04-08T19:38:52.967Z,43.88
2023-04-08T19:41:21.705Z,44.22
2023-04-08T19:43:50.784Z,44.29
2023-04-08T19:46:20.070Z,44.34
2023-04-08T19:48:49.769Z,44.57
2023-04-08T19:51:20.458Z,44.73
2023-04-08T19:53:51.327Z,44.85
2023-04-08T19:56:20.113Z,44.67
2023-04-08T19:58:48.721Z,44.66
2023-04-08T20:01:24.121Z,45.00
2023-04-08T20:03:53.920Z,44.88
2023-04-08T20:06:23.291Z,44.90
2023-04-08T20:08:53.396Z,44.94
2023-04-08T20:11:22.609Z,44.84
2023-04-08T20:13:51.709Z,44.94
2023-04-08T20:16:20.227Z,45.18
2023-04-08T20:18:49.314Z,45.04
2023-04-08T20:21:26.916Z,45.40
2023-04-08T20:23:55.858Z,44.93
2023-04-08T20:26:24.210Z,45.13
2023-04-08T20:28:56.331Z,45.53
2023-04-08T20:31:26.940Z,45.70
2023-04-08T20:33:59.340Z,45.63
2023-04-08T20:36:31.101Z,45.34
2023-04-08T20:39:00.276Z,45.47
2023-04-08T20:41:28.742Z,45.60
2023-04-08T20:43:57.167Z,45.81
2023-04-08T20:46:29.970Z,46.26
2023-04-08T20:48:58.519Z,46.32
2023-04-08T20:51:27.481Z,46.13
2023-04-08T20:53:56.267Z,46.02
2023-04-08T20:56:26.656Z,45.93
2023-04-08T20:59:01.374Z,45.88
2023-04-08T21:01:30.173Z,45.44
2023-04-08T21:03:58.601Z,45.18
2023-04-08T21:06:28.057Z,45.26
2023-04-08T21:08:58.735Z,45.39
2023-04-08T21:11:28.841Z,45.56
2023-04-08T21:13:57.976Z,45.90
2023-04-08T21:16:29.246Z,45.57
2023-04-08T21:19:01.495Z,45.99
2023-04-08T21:21:32.360Z,46.13
2023-04-08T21:24:00.861Z,46.30
2023-04-08T21:26:29.854Z,46.13
2023-04-08T21:28:58.543Z,46.16
2023-04-08T21:31:27.567Z,45.97
2023-04-08T21:33:58.706Z,45.62
2023-04-08T21:36:28.159Z,45.55
2023-04-08T21:38:57.643Z,45.48
2023-04-08T21:41:28.997Z,45.12
2023-04-08T21:43:59.429Z,45.00
2023-04-08T21:46:28.008Z,45.17
2023-04-08T21:48:56.555Z,45.15
2023-04-08T21:51:25.098Z,45.25
2023-04-08T21:53:53.813Z,45.30
2023-04-08T21:56:22.529Z,45.38
2023-04-08T21:58:51.505Z,45.49
2023-04-08T22:01:20.803Z,45.58
2023-04-08T22:03:52.537Z,45.42
2023-04-08T22:06:31.678Z,45.28
2023-04-08T22:09:01.188Z,46.56
2023-04-08T22:11:30.968Z,46.52
2023-04-08T22:13:59.579Z,45.85
2023-04-08T22:16:28.444Z,45.60
2023-04-08T22:18:57.320Z,45.17
2023-04-08T22:21:30.565Z,45.31
2023-04-08T22:23:59.225Z,45.04
2023-04-08T22:26:28.195Z,44.89
2023-04-08T22:29:00.579Z,44.94
2023-04-08T22:31:30.491Z,44.63
2023-04-08T22:34:00.392Z,44.61
2023-04-08T22:36:28.990Z,44.39
2023-04-08T22:38:58.016Z,44.60
2023-04-08T22:41:26.698Z,44.99
2023-04-08T22:43:55.171Z,45.01
2023-04-08T22:46:24.757Z,44.85
2023-04-08T22:48:53.857Z,44.95
2023-04-08T22:51:22.764Z,45.47
2023-04-08T22:53:51.194Z,44.98
2023-04-08T22:56:19.493Z,45.39
2023-04-08T22:58:50.802Z,45.42
2023-04-08T23:01:22.552Z,45.25
2023-04-08T23:03:52.271Z,45.64
2023-04-08T23:06:20.547Z,45.66
2023-04-08T23:08:51.616Z,45.47
2023-04-08T23:11:20.221Z,45.22
2023-04-08T23:18:43.378Z,45.63
2023-04-08T23:21:20.557Z,46.93
2023-04-08T23:23:49.680Z,46.20
2023-04-08T23:26:21.464Z,46.00
2023-04-08T23:28:55.277Z,46.19
2023-04-08T23:31:24.038Z,45.96
2023-04-08T23:33:53.478Z,46.22
2023-04-08T23:36:23.446Z,45.56
2023-04-08T23:38:51.855Z,45.59
2023-04-08T23:41:20.796Z,45.27
2023-04-08T23:43:55.367Z,45.95
2023-04-08T23:46:23.752Z,45.98
2023-04-08T23:48:57.938Z,45.32
2023-04-08T23:51:27.998Z,45.60
2023-04-08T23:53:56.802Z,45.52
2023-04-08T23:56:26.105Z,45.75
2023-04-08T23:58:54.939Z,45.41
